createdAt,value
2019-03-21T00:02:04.130Z,1028.10
2019-03-21T00:06:59.506Z,1027.99
2019-03-21T00:11:55.348Z,1028.03
2019-03-21T00:16:51.871Z,1028.04
2019-03-21T00:21:47.549Z,1028.09
2019-03-21T00:26:43.387Z,1028.05
2019-03-21T00:31:40.129Z,1027.99
2019-03-21T00:36:36.685Z,1028.05
2019-03-21T00:41:33.190Z,1027.97
2019-03-21T00:46:28.381Z,1027.92
2019-03-21T00:51:24.183Z,1027.84
2019-03-21T00:56:19.914Z,1027.86
2019-03-21T01:01:15.735Z,1027.80
2019-03-21T01:06:12.522Z,1027.80
2019-03-21T01:11:08.949Z,1027.73
2019-03-21T01:16:05.357Z,1027.67
2019-03-21T01:21:01.178Z,1027.56
2019-03-21T01:25:56.717Z,1027.61
2019-03-21T01:30:52.664Z,1027.52
2019-03-21T01:35:48.452Z,1027.49
2019-03-21T01:40:45.854Z,1027.50
2019-03-21T01:45:42.009Z,1027.55
2019-03-21T01:50:38.699Z,1027.55
2019-03-21T01:55:34.652Z,1027.50
2019-03-21T02:00:30.293Z,1027.41
2019-03-21T02:05:26.168Z,1027.46
2019-03-21T02:10:22.295Z,1027.41
2019-03-21T02:15:18.019Z,1027.32
2019-03-21T02:20:13.834Z,1027.36
2019-03-21T02:25:09.465Z,1027.32
2019-03-21T02:30:06.226Z,1027.38
2019-03-21T02:35:01.682Z,1027.33
2019-03-21T02:40:00.024Z,1027.31
2019-03-21T02:45:07.888Z,1027.31
2019-03-21T02:49:54.334Z,1027.23
2019-03-21T02:54:50.507Z,1027.28
2019-03-21T02:59:46.158Z,1027.33
2019-03-21T03:04:41.985Z,1027.29
2019-03-21T03:09:38.687Z,1027.30
2019-03-21T03:14:34.800Z,1027.32
2019-03-21T03:19:31.741Z,1027.34
2019-03-21T03:24:27.262Z,1027.41
2019-03-21T03:29:23.674Z,1027.41
2019-03-21T03:34:20.508Z,1027.47
2019-03-21T03:39:16.335Z,1027.61
2019-03-21T03:44:11.917Z,1027.63
2019-03-21T03:49:07.638Z,1027.56
2019-03-21T03:54:04.341Z,1027.55
2019-03-21T03:58:59.846Z,1027.61
2019-03-21T04:03:55.509Z,1027.56
2019-03-21T04:08:51.613Z,1027.51
2019-03-21T04:13:46.829Z,1027.44
2019-03-21T04:18:43.542Z,1027.46
2019-03-21T04:23:39.154Z,1027.42
2019-03-21T04:28:34.751Z,1027.44
2019-03-21T04:33:30.674Z,1027.48
2019-03-21T04:38:27.384Z,1027.51
2019-03-21T04:43:23.339Z,1027.52
2019-03-21T04:48:19.010Z,1027.50
2019-03-21T04:53:14.642Z,1027.64
2019-03-21T04:58:10.578Z,1027.57
2019-03-21T05:03:07.421Z,1027.61
2019-03-21T05:08:02.921Z,1027.58
2019-03-21T05:12:59.711Z,1027.60
2019-03-21T05:17:54.911Z,1027.65
2019-03-21T05:22:50.553Z,1027.70
2019-03-21T05:27:46.231Z,1027.56
2019-03-21T05:32:42.027Z,1027.80
2019-03-21T05:37:37.637Z,1027.83
2019-03-21T05:42:34.688Z,1027.72
2019-03-21T05:47:31.122Z,1027.84
2019-03-21T05:52:27.420Z,1027.77
2019-03-21T05:57:22.809Z,1027.90
2019-03-21T06:02:18.603Z,1027.91
2019-03-21T06:07:14.433Z,1027.87
2019-03-21T06:12:11.195Z,1027.85
2019-03-21T06:17:06.802Z,1027.93
2019-03-21T06:22:02.622Z,1027.93
2019-03-21T06:26:59.418Z,1027.97
2019-03-21T06:31:54.970Z,1028.08
2019-03-21T06:36:50.802Z,1028.07
2019-03-21T06:41:46.940Z,1028.12
2019-03-21T06:46:49.353Z,1028.22
2019-03-21T06:51:43.063Z,1028.24
2019-03-21T06:56:39.221Z,1028.24
2019-03-21T07:01:35.714Z,1028.25
2019-03-21T07:06:32.282Z,1028.18
2019-03-21T07:11:28.365Z,1028.26
2019-03-21T07:16:24.118Z,1028.17
2019-03-21T07:21:19.848Z,1028.32
2019-03-21T07:26:16.379Z,1028.26
2019-03-21T07:31:12.952Z,1028.24
2019-03-21T07:36:08.947Z,1028.14
2019-03-21T07:41:05.422Z,1028.29
2019-03-21T07:46:01.077Z,1028.21
2019-03-21T07:50:57.019Z,1028.24
2019-03-21T07:55:52.750Z,1028.25
2019-03-21T08:00:49.380Z,1028.35
2019-03-21T08:05:45.789Z,1028.29
2019-03-21T08:10:42.409Z,1028.36
2019-03-21T08:15:40.106Z,1028.22
2019-03-21T08:20:36.045Z,1028.25
2019-03-21T08:25:32.183Z,1028.21
2019-03-21T08:30:28.140Z,1028.15
2019-03-21T08:35:24.115Z,1028.25
2019-03-21T08:40:20.052Z,1028.16
2019-03-21T08:45:16.003Z,1028.15
2019-03-21T08:50:11.874Z,1028.19
2019-03-21T08:55:08.598Z,1028.08
2019-03-21T09:00:04.249Z,1028.03
2019-03-21T09:05:00.059Z,1028.03
2019-03-21T09:09:55.892Z,1028.09
2019-03-21T09:14:51.667Z,1028.09
2019-03-21T09:19:47.898Z,1028.05
2019-03-21T09:24:44.777Z,1028.08
2019-03-21T09:29:52.840Z,1028.14
2019-03-21T09:34:40.407Z,1028.14
2019-03-21T09:39:37.081Z,1028.26
2019-03-21T09:44:33.157Z,1028.22
2019-03-21T09:49:29.561Z,1028.16
2019-03-21T09:54:25.661Z,1028.14
2019-03-21T09:59:22.207Z,1028.19
2019-03-21T10:04:18.082Z,1028.09
2019-03-21T10:09:14.166Z,1028.16
2019-03-21T10:14:09.962Z,1028.14
2019-03-21T10:19:06.680Z,1028.13
2019-03-21T10:24:03.082Z,1028.14
2019-03-21T10:28:58.866Z,1028.26
2019-03-21T10:33:55.069Z,1028.20
2019-03-21T10:38:51.239Z,1028.21
2019-03-21T10:43:48.154Z,1028.19
2019-03-21T10:48:45.099Z,1028.16
2019-03-21T10:53:41.972Z,1028.14
2019-03-21T10:58:38.691Z,1028.15
2019-03-21T11:03:34.734Z,1028.07
2019-03-21T11:08:33.555Z,1028.15
2019-03-21T11:13:28.966Z,1028.05
2019-03-21T11:18:35.676Z,1027.99
2019-03-21T11:23:26.623Z,1027.90
2019-03-21T11:28:23.166Z,1027.89
2019-03-21T11:33:20.296Z,1027.83
2019-03-21T11:38:15.742Z,1027.76
2019-03-21T11:43:11.771Z,1027.73
2019-03-21T11:48:07.850Z,1027.64
2019-03-21T11:53:05.036Z,1027.66
2019-03-21T11:58:02.511Z,1027.48
2019-03-21T12:02:59.093Z,1027.64
2019-03-21T12:07:55.498Z,1027.59
2019-03-21T12:12:51.211Z,1027.45
2019-03-21T12:17:47.473Z,1027.40
2019-03-21T12:22:43.431Z,1027.36
2019-03-21T12:27:40.678Z,1027.33
2019-03-21T12:32:36.300Z,1027.28
2019-03-21T12:37:32.098Z,1027.37
2019-03-21T12:42:27.764Z,1027.37
2019-03-21T12:47:31.150Z,1027.30
2019-03-21T12:52:22.126Z,1027.25
2019-03-21T12:57:18.239Z,1027.23
2019-03-21T13:02:15.710Z,1027.08
2019-03-21T13:07:12.280Z,1027.18
2019-03-21T13:12:08.718Z,1027.13
2019-03-21T13:17:04.675Z,1026.95
2019-03-21T13:22:00.946Z,1026.87
2019-03-21T13:26:57.133Z,1026.90
2019-03-21T13:31:53.439Z,1026.85
2019-03-21T13:36:49.074Z,1026.88
2019-03-21T13:41:44.823Z,1026.85
2019-03-21T13:46:41.206Z,1026.88
2019-03-21T13:51:36.398Z,1026.82
2019-03-21T13:56:38.087Z,1026.81
2019-03-21T14:01:31.340Z,1026.71
2019-03-21T14:06:27.307Z,1026.67
2019-03-21T14:11:23.549Z,1026.57
2019-03-21T14:16:19.627Z,1026.53
2019-03-21T14:21:15.496Z,1026.41
2019-03-21T14:26:11.099Z,1026.36
2019-03-21T14:31:06.835Z,1026.33
2019-03-21T14:36:02.349Z,1026.35
2019-03-21T14:40:58.253Z,1026.21
2019-03-21T14:45:55.011Z,1026.21
2019-03-21T14:50:50.066Z,1026.24
2019-03-21T14:55:47.649Z,1026.18
2019-03-21T15:00:42.886Z,1026.18
2019-03-21T15:05:38.573Z,1026.23
2019-03-21T15:10:34.986Z,1026.06
2019-03-21T15:15:32.254Z,1026.08
2019-03-21T15:20:27.440Z,1026.11
2019-03-21T15:25:23.136Z,1026.12
2019-03-21T15:30:19.257Z,1026.11
2019-03-21T15:35:15.718Z,1026.05
2019-03-21T15:40:12.516Z,1026.11
2019-03-21T15:45:21.499Z,1026.07
2019-03-21T15:50:07.061Z,1025.99
2019-03-21T15:55:02.852Z,1026.03
2019-03-21T15:59:58.270Z,1026.00
2019-03-21T16:04:54.373Z,1026.00
2019-03-21T16:09:53.572Z,1025.93
2019-03-21T16:14:49.419Z,1025.91
2019-03-21T16:19:45.011Z,1026.02
2019-03-21T16:24:40.897Z,1026.04
2019-03-21T16:29:37.688Z,1026.00
2019-03-21T16:34:33.367Z,1026.06
2019-03-21T16:39:30.165Z,1025.98
2019-03-21T16:44:25.888Z,1025.92
2019-03-21T16:49:21.278Z,1026.04
2019-03-21T16:54:17.733Z,1026.04
2019-03-21T16:59:14.487Z,1025.97
2019-03-21T17:04:09.854Z,1025.99
2019-03-21T17:09:05.709Z,1026.04
2019-03-21T17:14:01.502Z,1026.09
2019-03-21T17:18:57.002Z,1026.07
2019-03-21T17:23:53.899Z,1026.14
2019-03-21T17:28:49.160Z,1026.18
2019-03-21T17:33:44.947Z,1026.12
2019-03-21T17:38:41.745Z,1026.14
2019-03-21T17:43:37.562Z,1026.17
2019-03-21T17:48:33.382Z,1026.17
2019-03-21T17:53:29.257Z,1026.31
2019-03-21T17:58:24.851Z,1026.23
2019-03-21T18:03:21.714Z,1026.26
2019-03-21T18:08:16.780Z,1026.33
2019-03-21T18:13:12.882Z,1026.36
2019-03-21T18:18:08.576Z,1026.42
2019-03-21T18:23:05.253Z,1026.20
2019-03-21T18:28:00.638Z,1026.23
2019-03-21T18:32:57.815Z,1026.27
2019-03-21T18:37:54.002Z,1026.28
2019-03-21T18:42:49.963Z,1026.26
2019-03-21T18:47:45.727Z,1026.28
2019-03-21T18:52:42.214Z,1026.33
2019-03-21T18:57:38.183Z,1026.32
2019-03-21T19:02:33.810Z,1026.37
2019-03-21T19:07:29.406Z,1026.39
2019-03-21T19:12:25.574Z,1026.38
2019-03-21T19:17:22.327Z,1026.35
2019-03-21T19:22:18.028Z,1026.33
2019-03-21T19:27:14.153Z,1026.35
2019-03-21T19:32:09.464Z,1026.42
2019-03-21T19:37:06.718Z,1026.36
2019-03-21T19:42:02.315Z,1026.40
2019-03-21T19:46:58.009Z,1026.34
2019-03-21T19:51:53.714Z,1026.42
2019-03-21T19:56:50.632Z,1026.42
2019-03-21T20:01:46.164Z,1026.40
2019-03-21T20:06:41.882Z,1026.49
2019-03-21T20:11:38.356Z,1026.37
2019-03-21T20:16:33.946Z,1026.41
2019-03-21T20:21:30.444Z,1026.41
2019-03-21T20:26:26.106Z,1026.38
2019-03-21T20:31:21.955Z,1026.42
2019-03-21T20:36:18.760Z,1026.38
2019-03-21T20:41:15.111Z,1026.41
2019-03-21T20:46:10.755Z,1026.35
2019-03-21T20:51:07.635Z,1026.38
2019-03-21T20:56:03.032Z,1026.39
2019-03-21T21:00:59.030Z,1026.37
2019-03-21T21:05:54.858Z,1026.45
2019-03-21T21:10:51.765Z,1026.32
2019-03-21T21:15:46.931Z,1026.34
2019-03-21T21:20:42.723Z,1026.38
2019-03-21T21:25:38.464Z,1026.42
2019-03-21T21:30:35.218Z,1026.30
2019-03-21T21:35:31.522Z,1026.37
2019-03-21T21:40:29.099Z,1026.42
2019-03-21T21:45:26.565Z,1026.44
2019-03-21T21:50:21.462Z,1026.33
2019-03-21T21:55:17.137Z,1026.37
2019-03-21T22:00:13.778Z,1026.36
2019-03-21T22:05:10.218Z,1026.32
2019-03-21T22:10:06.295Z,1026.49
2019-03-21T22:15:01.897Z,1026.50
2019-03-21T22:19:58.833Z,1026.38
2019-03-21T22:24:54.281Z,1026.35
2019-03-21T22:29:49.931Z,1026.47
2019-03-21T22:34:45.856Z,1026.53
2019-03-21T22:39:42.518Z,1026.60
2019-03-21T22:44:38.118Z,1026.50
2019-03-21T22:49:33.801Z,1026.52
2019-03-21T22:54:29.736Z,1026.39
2019-03-21T22:59:25.099Z,1026.42
2019-03-21T23:04:21.561Z,1026.35
2019-03-21T23:09:17.945Z,1026.40
2019-03-21T23:14:13.718Z,1026.29
2019-03-21T23:19:09.144Z,1026.22
2019-03-21T23:24:05.400Z,1026.22
2019-03-21T23:29:01.454Z,1026.19
2019-03-21T23:33:57.021Z,1026.22
2019-03-21T23:38:53.201Z,1026.16
2019-03-21T23:43:49.613Z,1026.13
2019-03-21T23:48:45.342Z,1026.03
2019-03-21T23:53:41.696Z,1026.05
2019-03-21T23:58:38.019Z,1025.95
